KFTY

Fulton County-Brown Field Airport

Atlanta, Georgia, USA
METAR KFTY 220953Z 09003KT 10SM OVC010 21/20 A3009 RMK AO2 SLP181 T02110200
Observed Flight Rules
May-22 @ 09:53 UTC (24 minutes ago) Marginal Visual Flight Rules
Wind Visibility Clouds
90° at 3 knots 10 miles
  • Overcast at 1,000' AGL
Temperatures Readings
Current 21°C / 70°F
Dewpoint 20°C / 68°F
Humidity 94%
Altimeter 30.09" Hg
Pressure 1018.1 hPa
Elevation 263
METAR KFTY 220953Z 09003KT 10SM OVC010 21/20 A3009 RMK AO2 SLP181 T02110200
Observed Flight Rules
May-22 @ 09:53 UTC
(24 minutes ago)
MVFR
Wind Visibility
90° at 3 knots 10 miles
Clouds
  • Overcast at 1,000' AGL
Temperature Dewpoint
21°C / 70°F 20°C / 68°F
Humidity Altimeter Pressure
94% 30.09" Hg 1018.1 hPa